createdAt,value
2023-01-23T00:01:31.750Z,99.90
2023-01-23T00:03:34.144Z,99.90
2023-01-23T00:05:35.868Z,99.90
2023-01-23T00:07:37.749Z,99.90
2023-01-23T00:09:39.924Z,99.90
2023-01-23T00:11:41.663Z,99.90
2023-01-23T00:13:43.989Z,99.90
2023-01-23T00:15:45.674Z,99.90
2023-01-23T00:17:48.393Z,99.90
2023-01-23T00:19:53.717Z,99.90
2023-01-23T00:21:55.521Z,99.90
2023-01-23T00:23:58.861Z,99.90
2023-01-23T00:26:08.816Z,99.90
2023-01-23T00:28:10.556Z,99.90
2023-01-23T00:30:13.714Z,99.90
2023-01-23T00:32:15.537Z,99.90
2023-01-23T00:34:17.310Z,99.90
2023-01-23T00:36:20.178Z,99.90
2023-01-23T00:38:22.147Z,99.90
2023-01-23T00:40:24.137Z,99.90
2023-01-23T00:42:25.767Z,99.90
2023-01-23T00:44:27.511Z,99.90
2023-01-23T00:46:29.400Z,99.90
2023-01-23T00:48:31.499Z,99.90
2023-01-23T00:50:33.205Z,99.90
2023-01-23T00:52:35.057Z,99.90
2023-01-23T00:54:38.367Z,99.90
2023-01-23T00:56:40.141Z,99.90
2023-01-23T00:58:43.523Z,99.90
2023-01-23T01:00:46.732Z,99.90
2023-01-23T01:02:48.635Z,99.90
2023-01-23T01:04:50.522Z,99.90
2023-01-23T01:06:52.223Z,99.90
2023-01-23T01:08:53.924Z,99.90
2023-01-23T01:10:55.973Z,99.90
2023-01-23T01:12:59.067Z,99.90
2023-01-23T01:15:00.734Z,99.90
2023-01-23T01:17:02.467Z,99.90
2023-01-23T01:19:05.235Z,99.90
2023-01-23T01:21:09.360Z,99.90
2023-01-23T01:23:11.707Z,99.90
2023-01-23T01:25:13.691Z,99.90
2023-01-23T01:27:15.421Z,99.90
2023-01-23T01:29:17.217Z,99.90
2023-01-23T01:31:19.250Z,99.90
2023-01-23T01:33:21.131Z,99.90
2023-01-23T01:35:24.180Z,99.90
2023-01-23T01:37:26.186Z,99.90
2023-01-23T01:39:27.910Z,99.90
2023-01-23T01:41:29.733Z,99.90
2023-01-23T01:43:32.014Z,99.90
2023-01-23T01:46:11.483Z,99.90
2023-01-23T01:48:14.353Z,99.90
2023-01-23T01:50:16.393Z,99.90
2023-01-23T01:52:20.359Z,99.90
2023-01-23T01:54:44.154Z,99.90
2023-01-23T01:56:55.563Z,99.90
2023-01-23T01:59:00.821Z,99.90
2023-01-23T02:01:02.679Z,99.90
2023-01-23T02:03:04.680Z,99.90
2023-01-23T02:05:11.575Z,99.90
2023-01-23T02:07:26.304Z,99.90
2023-01-23T02:09:28.261Z,99.90
2023-01-23T02:11:30.093Z,99.90
2023-01-23T02:13:36.154Z,99.90
2023-01-23T02:15:39.089Z,99.90
2023-01-23T02:17:41.173Z,99.90
2023-01-23T02:19:54.669Z,99.90
2023-01-23T02:22:06.843Z,99.90
2023-01-23T02:24:11.868Z,99.90
2023-01-23T02:26:17.962Z,99.90
2023-01-23T02:28:19.622Z,99.90
2023-01-23T02:30:21.886Z,99.90
2023-01-23T02:32:27.108Z,99.90
2023-01-23T02:34:29.806Z,99.90
2023-01-23T02:36:34.259Z,99.90
2023-01-23T02:38:58.085Z,99.90
2023-01-23T02:41:03.088Z,99.90
2023-01-23T02:43:08.852Z,99.90
2023-01-23T02:45:10.964Z,99.90
2023-01-23T02:47:13.110Z,99.90
2023-01-23T02:49:15.601Z,99.90
2023-01-23T02:51:17.829Z,99.90
2023-01-23T02:53:19.549Z,99.90
2023-01-23T02:55:22.364Z,99.90
2023-01-23T02:57:24.370Z,99.90
2023-01-23T02:59:44.776Z,99.90
2023-01-23T03:01:46.712Z,99.90
2023-01-23T03:03:51.437Z,99.90
2023-01-23T03:05:55.645Z,99.90
2023-01-23T03:07:58.192Z,99.90
2023-01-23T03:10:00.193Z,99.90
2023-01-23T03:12:02.931Z,99.90
2023-01-23T03:14:06.478Z,99.90
2023-01-23T03:16:09.634Z,99.90
2023-01-23T03:18:11.377Z,99.90
2023-01-23T03:20:13.198Z,99.90
2023-01-23T03:22:15.038Z,99.90
2023-01-23T03:24:17.886Z,99.90
2023-01-23T03:26:19.859Z,99.90
2023-01-23T03:28:54.019Z,99.90
2023-01-23T03:30:55.799Z,99.90
2023-01-23T03:32:57.499Z,99.90
2023-01-23T03:34:59.495Z,99.90
2023-01-23T03:37:01.560Z,99.90
2023-01-23T03:39:26.398Z,99.90
2023-01-23T03:41:28.765Z,99.90
2023-01-23T03:43:33.179Z,99.90
2023-01-23T03:45:34.880Z,99.90
2023-01-23T03:47:37.034Z,99.90
2023-01-23T03:49:38.806Z,99.90
2023-01-23T03:51:40.542Z,99.90
2023-01-23T03:53:42.351Z,99.90
2023-01-23T03:55:47.782Z,99.90
2023-01-23T03:57:49.437Z,99.90
2023-01-23T03:59:51.451Z,99.90
2023-01-23T04:01:53.089Z,99.90
2023-01-23T04:03:54.770Z,99.90
2023-01-23T04:05:58.582Z,99.90
2023-01-23T04:08:00.660Z,99.90
2023-01-23T04:10:02.559Z,99.90
2023-01-23T04:12:04.492Z,99.90
2023-01-23T04:14:06.448Z,99.90
2023-01-23T04:16:08.328Z,99.90
2023-01-23T04:18:10.070Z,99.90
2023-01-23T04:20:12.878Z,99.90
2023-01-23T04:22:14.744Z,99.90
2023-01-23T04:24:17.763Z,99.90
2023-01-23T04:26:19.454Z,99.90
2023-01-23T04:28:21.255Z,99.90
2023-01-23T04:30:23.153Z,99.90
2023-01-23T04:32:25.775Z,99.90
2023-01-23T04:34:27.660Z,99.90
2023-01-23T04:36:29.692Z,99.90
2023-01-23T04:38:32.255Z,99.90
2023-01-23T04:40:34.213Z,99.90
2023-01-23T04:42:36.073Z,99.90
2023-01-23T04:44:37.898Z,99.90
2023-01-23T04:46:39.567Z,99.90
2023-01-23T04:48:41.316Z,99.90
2023-01-23T04:50:43.057Z,99.90
2023-01-23T04:52:44.764Z,99.90
2023-01-23T04:54:46.583Z,99.90
2023-01-23T04:56:48.863Z,99.90
2023-01-23T04:58:50.645Z,99.90
2023-01-23T05:00:52.555Z,99.90
2023-01-23T05:02:54.417Z,99.90
2023-01-23T05:04:56.270Z,99.90
2023-01-23T05:06:58.259Z,99.90
2023-01-23T05:08:59.964Z,99.90
2023-01-23T05:11:01.608Z,99.90
2023-01-23T05:13:04.061Z,99.90
2023-01-23T05:15:07.174Z,99.90
2023-01-23T05:17:09.004Z,99.90
2023-01-23T05:19:11.501Z,99.90
2023-01-23T05:21:13.165Z,99.90
2023-01-23T05:23:15.027Z,99.90
2023-01-23T05:25:16.729Z,99.90
2023-01-23T05:27:18.436Z,99.90
2023-01-23T05:29:20.126Z,99.90
2023-01-23T05:31:22.080Z,99.90
2023-01-23T05:33:24.093Z,99.90
2023-01-23T05:35:25.997Z,99.90
2023-01-23T05:37:27.664Z,99.90
2023-01-23T05:39:32.570Z,99.90
2023-01-23T05:41:34.309Z,99.90
2023-01-23T05:43:36.094Z,99.90
2023-01-23T05:45:37.837Z,99.90
2023-01-23T05:47:40.142Z,99.90
2023-01-23T05:49:41.922Z,99.90
2023-01-23T05:51:43.716Z,99.90
2023-01-23T05:53:45.665Z,99.90
2023-01-23T05:55:47.428Z,99.90
2023-01-23T05:57:49.160Z,99.90
2023-01-23T05:59:50.900Z,99.90
2023-01-23T06:01:52.553Z,99.90
2023-01-23T06:03:54.415Z,99.90
2023-01-23T06:05:56.097Z,99.90
2023-01-23T06:07:58.001Z,99.90
2023-01-23T06:09:59.646Z,99.90
2023-01-23T06:12:01.659Z,99.90
2023-01-23T06:14:03.430Z,99.90
2023-01-23T06:16:05.567Z,99.90
2023-01-23T06:18:07.306Z,99.90
2023-01-23T06:20:09.872Z,99.90
2023-01-23T06:22:11.671Z,99.90
2023-01-23T06:24:13.486Z,99.90
2023-01-23T06:26:15.150Z,99.90
2023-01-23T06:28:16.948Z,99.90
2023-01-23T06:30:19.385Z,99.90
2023-01-23T06:32:23.523Z,99.90
2023-01-23T06:34:25.278Z,99.90
2023-01-23T06:36:27.325Z,99.90
2023-01-23T06:38:29.433Z,99.90
2023-01-23T06:40:31.173Z,99.90
2023-01-23T06:42:32.867Z,99.90
2023-01-23T06:44:34.711Z,99.90
2023-01-23T06:46:36.812Z,99.90
2023-01-23T06:48:39.262Z,99.90
2023-01-23T06:50:41.995Z,99.90
2023-01-23T06:52:43.810Z,99.90
2023-01-23T06:54:45.562Z,99.90
2023-01-23T06:56:49.291Z,99.90
2023-01-23T06:58:51.052Z,99.90
2023-01-23T07:00:52.966Z,99.90
2023-01-23T07:02:58.838Z,99.90
2023-01-23T07:05:00.549Z,99.90
2023-01-23T07:07:02.498Z,99.90
2023-01-23T07:09:04.467Z,99.90
2023-01-23T07:11:07.106Z,99.90
2023-01-23T07:13:10.618Z,99.90
2023-01-23T07:15:12.415Z,99.90
2023-01-23T07:17:14.120Z,99.90
2023-01-23T07:19:15.922Z,99.90
2023-01-23T07:21:17.607Z,99.90
2023-01-23T07:23:19.458Z,99.90
2023-01-23T07:25:22.390Z,99.90
2023-01-23T07:27:24.195Z,99.90
2023-01-23T07:29:26.276Z,99.90
2023-01-23T07:31:28.113Z,99.90
2023-01-23T07:33:29.858Z,99.90
2023-01-23T07:35:32.291Z,99.90
2023-01-23T07:37:34.182Z,99.90
2023-01-23T07:39:35.849Z,99.90
2023-01-23T07:41:38.148Z,99.90
2023-01-23T07:43:39.840Z,99.90
2023-01-23T07:45:41.622Z,99.90
2023-01-23T07:47:45.567Z,99.90
2023-01-23T07:49:47.450Z,99.90
2023-01-23T07:51:49.196Z,99.90
2023-01-23T07:53:50.882Z,99.90
2023-01-23T07:55:52.529Z,99.90
2023-01-23T07:57:54.187Z,99.90
2023-01-23T07:59:55.922Z,99.90
2023-01-23T08:01:57.770Z,99.90
2023-01-23T08:03:59.742Z,99.90
2023-01-23T08:06:01.461Z,99.90
2023-01-23T08:08:13.043Z,99.90
2023-01-23T08:10:15.960Z,99.90
2023-01-23T08:12:17.800Z,99.90
2023-01-23T08:14:20.198Z,99.90
2023-01-23T08:16:21.978Z,99.90
2023-01-23T08:18:23.802Z,99.90
2023-01-23T08:20:25.497Z,99.90
2023-01-23T08:22:27.267Z,99.90
2023-01-23T08:24:29.084Z,99.90
2023-01-23T08:26:31.046Z,99.90
2023-01-23T08:28:33.209Z,99.90
2023-01-23T08:30:35.012Z,99.90
2023-01-23T08:32:36.937Z,99.90
2023-01-23T08:34:38.606Z,99.90
2023-01-23T08:36:40.355Z,99.90
2023-01-23T08:38:42.030Z,99.90
2023-01-23T08:40:43.777Z,99.90
2023-01-23T08:42:45.555Z,99.90
2023-01-23T08:44:47.405Z,99.90
2023-01-23T08:46:49.031Z,99.90
2023-01-23T08:48:50.738Z,99.90
2023-01-23T08:50:58.935Z,99.90
2023-01-23T08:53:01.041Z,99.90
2023-01-23T08:55:03.245Z,99.90
2023-01-23T08:57:05.522Z,99.90
2023-01-23T08:59:07.446Z,99.90
2023-01-23T09:01:13.978Z,99.90
2023-01-23T09:03:16.020Z,99.90
2023-01-23T09:05:18.249Z,99.90
2023-01-23T09:07:19.910Z,99.90
2023-01-23T09:09:21.626Z,99.90
2023-01-23T09:11:24.405Z,99.90
2023-01-23T09:13:26.590Z,99.90
2023-01-23T09:15:28.629Z,99.90
2023-01-23T09:17:30.441Z,99.90
2023-01-23T09:19:32.743Z,99.90
2023-01-23T09:21:34.546Z,99.90
2023-01-23T09:23:36.740Z,99.90
2023-01-23T09:25:38.540Z,99.90
2023-01-23T09:27:40.566Z,99.90
2023-01-23T09:29:42.336Z,99.90
2023-01-23T09:31:44.212Z,99.90
2023-01-23T09:33:47.852Z,99.90
2023-01-23T09:35:52.151Z,99.90
2023-01-23T09:37:59.988Z,99.90
2023-01-23T09:40:01.680Z,99.90
2023-01-23T09:42:08.467Z,99.90
2023-01-23T09:44:25.238Z,99.90
2023-01-23T09:46:32.954Z,99.90
2023-01-23T09:48:44.601Z,99.90
2023-01-23T09:50:57.761Z,99.90
2023-01-23T09:53:08.599Z,99.90
2023-01-23T09:55:25.203Z,99.90
2023-01-23T09:57:34.964Z,99.90
2023-01-23T09:59:53.647Z,99.90
2023-01-23T10:01:59.890Z,99.90
2023-01-23T10:04:02.583Z,91.30
2023-01-23T10:06:24.488Z,49.70
2023-01-23T10:08:56.581Z,30.00
2023-01-23T10:11:06.825Z,20.40
2023-01-23T10:13:19.791Z,40.50
2023-01-23T10:15:24.445Z,26.20
2023-01-23T10:17:28.834Z,1.00
2023-01-23T10:19:58.285Z,1.00
2023-01-23T10:22:33.552Z,1.00
2023-01-23T10:24:48.752Z,1.00
2023-01-23T10:26:50.903Z,1.00
2023-01-23T10:28:58.436Z,1.00
2023-01-23T10:31:04.030Z,1.00
2023-01-23T10:33:15.584Z,1.00
2023-01-23T10:35:36.134Z,1.00
2023-01-23T10:37:50.920Z,1.00
2023-01-23T10:40:02.921Z,1.00
2023-01-23T10:42:11.735Z,1.00
2023-01-23T10:44:19.287Z,1.00
2023-01-23T10:46:27.740Z,1.00
2023-01-23T10:48:32.391Z,26.40
2023-01-23T10:50:39.591Z,30.10
2023-01-23T10:52:43.952Z,48.00
2023-01-23T10:54:47.016Z,52.50
2023-01-23T10:57:18.610Z,74.80
2023-01-23T10:59:28.453Z,74.80
2023-01-23T11:01:32.811Z,54.10
2023-01-23T11:03:39.720Z,40.40
2023-01-23T11:05:52.496Z,42.10
2023-01-23T11:07:55.877Z,34.90
2023-01-23T11:10:13.283Z,61.40
2023-01-23T11:12:21.434Z,45.30
2023-01-23T11:14:24.242Z,27.00
2023-01-23T11:16:25.957Z,1.00
2023-01-23T11:18:39.067Z,1.00
2023-01-23T11:20:52.782Z,1.00
2023-01-23T11:23:10.941Z,1.00
2023-01-23T11:25:37.726Z,1.00
2023-01-23T11:27:39.485Z,1.00
2023-01-23T11:30:03.164Z,5.40
2023-01-23T11:32:11.288Z,18.90
2023-01-23T11:34:16.056Z,32.90
2023-01-23T11:36:17.690Z,39.30
2023-01-23T11:38:30.849Z,36.00
2023-01-23T11:40:32.864Z,44.60
2023-01-23T11:42:39.315Z,47.40
2023-01-23T11:44:46.428Z,19.00
2023-01-23T11:47:36.506Z,1.00
2023-01-23T11:50:11.838Z,1.00
2023-01-23T11:52:42.721Z,1.00
2023-01-23T11:54:56.068Z,1.00
2023-01-23T11:57:20.650Z,1.00
2023-01-23T11:59:34.395Z,10.70
2023-01-23T12:02:03.197Z,25.00
2023-01-23T12:04:35.521Z,43.50
2023-01-23T12:06:49.391Z,57.90
2023-01-23T12:09:02.816Z,49.30
2023-01-23T12:11:13.676Z,59.00
2023-01-23T12:13:33.411Z,43.90
2023-01-23T12:15:50.927Z,40.80
2023-01-23T12:18:16.246Z,47.70
2023-01-23T12:20:42.103Z,27.80
2023-01-23T12:23:20.805Z,17.20
2023-01-23T12:25:33.148Z,1.00
2023-01-23T12:27:50.170Z,1.00
2023-01-23T12:30:33.923Z,1.00
2023-01-23T12:32:41.414Z,1.00
2023-01-23T12:35:01.747Z,1.00
2023-01-23T12:37:40.946Z,1.00
2023-01-23T12:40:02.125Z,1.00
2023-01-23T12:42:13.262Z,1.00
2023-01-23T12:44:17.081Z,1.00
2023-01-23T12:46:25.071Z,99.90
2023-01-23T12:48:40.590Z,1.00
2023-01-23T12:50:57.341Z,1.00
2023-01-23T12:53:06.847Z,1.00
2023-01-23T12:55:22.849Z,99.90
2023-01-23T13:00:27.514Z,1.00
2023-01-23T13:02:34.357Z,1.00
2023-01-23T13:05:09.236Z,1.00
2023-01-23T13:07:26.079Z,1.00
2023-01-23T13:10:06.417Z,1.00
2023-01-23T13:12:21.816Z,1.00
2023-01-23T13:14:43.502Z,1.00
2023-01-23T13:16:56.822Z,99.90
2023-01-23T13:19:19.756Z,1.00
2023-01-23T13:21:40.016Z,1.00
2023-01-23T13:23:41.946Z,71.10
2023-01-23T13:25:43.712Z,82.00
2023-01-23T13:27:58.398Z,99.90
2023-01-23T13:30:02.285Z,99.90
2023-01-23T13:32:22.137Z,99.90
2023-01-23T13:34:24.775Z,99.90
2023-01-23T13:36:35.776Z,99.90
2023-01-23T13:38:39.471Z,99.90
2023-01-23T13:41:01.181Z,99.90
2023-01-23T13:43:58.062Z,99.90
2023-01-23T13:45:59.865Z,99.90
2023-01-23T14:23:34.591Z,21.30
2023-01-23T14:25:38.161Z,38.00
2023-01-23T14:27:52.043Z,68.60
2023-01-23T14:30:02.946Z,93.10
2023-01-23T14:32:04.931Z,91.30
2023-01-23T14:34:17.907Z,98.30
2023-01-23T14:36:21.433Z,99.90
2023-01-23T14:38:29.555Z,99.90
2023-01-23T14:40:40.321Z,99.90
2023-01-23T14:43:16.795Z,99.90
2023-01-23T14:45:18.981Z,99.90
2023-01-23T14:47:34.321Z,99.90
2023-01-23T14:49:37.644Z,99.90
2023-01-23T14:51:39.550Z,99.90
2023-01-23T14:53:41.693Z,99.90
2023-01-23T14:55:49.945Z,99.90
2023-01-23T14:57:53.221Z,99.90
2023-01-23T14:59:56.947Z,99.90
2023-01-23T15:02:07.503Z,99.90
2023-01-23T15:04:23.543Z,99.90
2023-01-23T15:06:25.436Z,99.90
2023-01-23T15:08:32.423Z,99.90
2023-01-23T15:10:43.029Z,99.90
2023-01-23T15:12:59.706Z,99.90
2023-01-23T15:15:01.425Z,99.90
2023-01-23T15:17:07.205Z,99.90
2023-01-23T15:19:23.605Z,99.90
2023-01-23T15:21:35.746Z,99.90
2023-01-23T15:23:40.536Z,99.90
2023-01-23T15:25:42.488Z,99.90
2023-01-23T15:27:44.212Z,99.90
2023-01-23T15:29:45.903Z,99.90
2023-01-23T15:31:52.991Z,99.90
2023-01-23T15:33:56.303Z,99.90
2023-01-23T15:36:08.196Z,99.90
2023-01-23T15:38:16.459Z,99.90
2023-01-23T15:40:20.295Z,99.90
2023-01-23T15:42:27.449Z,99.90
2023-01-23T15:44:31.720Z,99.90
2023-01-23T15:46:33.546Z,99.90
2023-01-23T15:48:35.489Z,99.90
2023-01-23T15:50:37.591Z,99.90
2023-01-23T15:52:49.923Z,99.90
2023-01-23T15:54:58.157Z,99.90
2023-01-23T15:57:07.543Z,99.90
2023-01-23T15:59:18.257Z,99.90
2023-01-23T16:01:20.126Z,99.90
2023-01-23T16:03:21.909Z,99.90
2023-01-23T16:05:26.427Z,99.90
2023-01-23T16:07:34.663Z,99.90
2023-01-23T16:09:39.253Z,99.90
2023-01-23T16:11:41.209Z,99.90
2023-01-23T16:13:42.875Z,99.90
2023-01-23T16:15:44.835Z,99.90
2023-01-23T16:17:47.149Z,99.90
2023-01-23T16:19:50.559Z,99.90
2023-01-23T16:22:03.903Z,99.90
2023-01-23T16:24:07.131Z,99.90
2023-01-23T16:26:20.283Z,99.90
2023-01-23T16:28:24.146Z,99.90
2023-01-23T16:30:27.073Z,99.90
2023-01-23T16:32:28.982Z,99.90
2023-01-23T16:34:30.735Z,99.90
2023-01-23T16:36:32.643Z,99.90
2023-01-23T16:38:34.614Z,99.90
2023-01-23T16:40:36.371Z,99.90
2023-01-23T16:42:38.956Z,99.90
2023-01-23T16:44:40.708Z,99.90
2023-01-23T16:46:43.284Z,99.90
2023-01-23T16:48:45.114Z,99.90
2023-01-23T16:50:51.767Z,99.90
2023-01-23T16:52:59.272Z,99.90
2023-01-23T16:55:01.018Z,99.90
2023-01-23T16:57:03.106Z,99.90
2023-01-23T16:59:15.377Z,99.90
2023-01-23T17:01:22.899Z,99.90
2023-01-23T17:03:29.609Z,99.90
2023-01-23T17:05:31.302Z,99.90
2023-01-23T17:07:33.022Z,99.90
2023-01-23T17:09:34.998Z,99.90
2023-01-23T17:11:48.574Z,99.90
2023-01-23T17:13:58.889Z,99.90
2023-01-23T17:16:02.544Z,99.90
2023-01-23T17:18:04.491Z,99.90
2023-01-23T17:20:06.915Z,99.90
2023-01-23T17:22:28.056Z,99.90
2023-01-23T17:24:29.754Z,99.90
2023-01-23T17:26:31.398Z,99.90
2023-01-23T17:28:33.599Z,99.90
2023-01-23T17:30:35.573Z,99.90
2023-01-23T17:32:39.007Z,99.90
2023-01-23T17:34:48.796Z,99.90
2023-01-23T17:36:54.331Z,99.90
2023-01-23T17:38:58.353Z,99.90
2023-01-23T17:41:00.182Z,99.90
2023-01-23T17:43:02.047Z,99.90
2023-01-23T17:45:04.277Z,99.90
2023-01-23T17:47:06.619Z,99.90
2023-01-23T17:49:28.496Z,99.90
2023-01-23T17:51:33.590Z,99.90
2023-01-23T17:53:42.326Z,99.90
2023-01-23T17:55:48.971Z,99.90
2023-01-23T17:57:51.095Z,99.90
2023-01-23T17:59:55.550Z,99.90
2023-01-23T18:01:58.719Z,99.90
2023-01-23T18:04:00.364Z,99.90
2023-01-23T18:06:02.102Z,99.90
2023-01-23T18:08:03.945Z,99.90
2023-01-23T18:10:07.818Z,99.90
2023-01-23T18:12:23.172Z,99.90
2023-01-23T18:14:30.633Z,99.90
2023-01-23T18:16:42.619Z,99.90
2023-01-23T18:18:46.686Z,99.90
2023-01-23T18:20:54.491Z,99.90
2023-01-23T18:22:57.229Z,99.90
2023-01-23T18:24:59.237Z,99.90
2023-01-23T18:27:18.632Z,99.90
2023-01-23T18:30:00.241Z,99.90
2023-01-23T18:32:35.659Z,99.90
2023-01-23T18:34:52.865Z,99.90
2023-01-23T18:37:13.187Z,99.90
2023-01-23T18:39:51.648Z,99.90
2023-01-23T18:42:38.541Z,99.90
2023-01-23T18:44:47.635Z,99.90
2023-01-23T18:46:49.554Z,99.90
2023-01-23T18:48:51.580Z,99.90
2023-01-23T18:51:15.792Z,99.90
2023-01-23T18:53:41.201Z,99.90
2023-01-23T18:56:10.276Z,99.90
2023-01-23T18:58:46.754Z,99.90
2023-01-23T19:01:22.493Z,99.90
2023-01-23T19:03:35.578Z,99.90
2023-01-23T19:05:37.407Z,99.90
2023-01-23T19:07:39.795Z,99.90
2023-01-23T19:09:46.569Z,99.90
2023-01-23T19:12:24.033Z,99.90
2023-01-23T19:14:38.825Z,99.90
2023-01-23T19:16:53.886Z,99.90
2023-01-23T19:19:19.866Z,99.90
2023-01-23T19:21:26.682Z,99.90
2023-01-23T19:23:44.455Z,99.90
2023-01-23T19:25:48.046Z,99.90
2023-01-23T19:27:52.813Z,99.90
2023-01-23T19:29:54.639Z,99.90
2023-01-23T19:32:05.275Z,99.90
2023-01-23T19:34:07.724Z,99.90
2023-01-23T19:36:11.357Z,99.90
2023-01-23T19:38:15.091Z,99.90
2023-01-23T19:40:17.371Z,99.90
2023-01-23T19:42:19.323Z,99.90
2023-01-23T19:44:24.233Z,99.90
2023-01-23T19:46:31.711Z,99.90
2023-01-23T19:48:33.297Z,99.90
2023-01-23T19:50:35.401Z,99.90
2023-01-23T19:52:37.284Z,99.90
2023-01-23T19:54:39.119Z,99.90
2023-01-23T19:56:42.306Z,99.90
2023-01-23T19:58:44.953Z,99.90
2023-01-23T20:00:47.155Z,99.90
2023-01-23T20:02:49.802Z,99.90
2023-01-23T20:04:51.473Z,99.90
2023-01-23T20:06:53.423Z,99.90
2023-01-23T20:08:55.239Z,99.90
2023-01-23T20:10:56.963Z,99.90
2023-01-23T20:12:59.204Z,99.90
2023-01-23T20:15:00.865Z,99.90
2023-01-23T20:17:02.655Z,99.90
2023-01-23T20:19:04.387Z,99.90
2023-01-23T20:21:06.263Z,99.90
2023-01-23T20:23:08.021Z,99.90
2023-01-23T20:25:13.003Z,99.90
2023-01-23T20:27:14.728Z,99.90
2023-01-23T20:29:16.471Z,99.90
2023-01-23T20:31:18.283Z,99.90
2023-01-23T20:33:24.489Z,99.90
2023-01-23T20:35:26.739Z,99.90
2023-01-23T20:37:28.839Z,99.90
2023-01-23T20:39:30.872Z,99.90
2023-01-23T20:41:32.722Z,99.90
2023-01-23T20:43:34.778Z,99.90
2023-01-23T20:45:36.537Z,99.90
2023-01-23T20:47:38.737Z,99.90
2023-01-23T20:49:40.437Z,99.90
2023-01-23T20:51:42.632Z,99.90
2023-01-23T20:53:44.998Z,99.90
2023-01-23T20:55:52.983Z,99.90
2023-01-23T20:58:13.389Z,99.90
2023-01-23T21:00:15.801Z,99.90
2023-01-23T21:02:23.353Z,99.90
2023-01-23T21:04:31.062Z,99.90
2023-01-23T21:06:32.777Z,99.90
2023-01-23T21:08:34.782Z,99.90
2023-01-23T21:10:36.542Z,99.90
2023-01-23T21:12:38.251Z,99.90
2023-01-23T21:14:40.246Z,99.90
2023-01-23T21:16:42.268Z,99.90
2023-01-23T21:18:47.033Z,99.90
2023-01-23T21:20:48.917Z,99.90
2023-01-23T21:22:50.714Z,99.90
2023-01-23T21:24:52.356Z,99.90
2023-01-23T21:26:54.633Z,99.90
2023-01-23T21:28:57.767Z,99.90
2023-01-23T21:30:59.894Z,99.90
2023-01-23T21:33:01.687Z,99.90
2023-01-23T21:35:03.654Z,99.90
2023-01-23T21:37:07.321Z,99.90
2023-01-23T21:39:10.376Z,99.90
2023-01-23T21:41:12.623Z,99.90
2023-01-23T21:43:14.824Z,99.90
2023-01-23T21:45:16.608Z,99.90
2023-01-23T21:47:19.990Z,99.90
2023-01-23T21:49:21.887Z,99.90
2023-01-23T21:51:25.465Z,99.90
2023-01-23T21:53:27.335Z,99.90
2023-01-23T21:55:29.094Z,99.90
2023-01-23T21:57:30.784Z,99.90
2023-01-23T21:59:32.637Z,99.90
2023-01-23T22:01:42.516Z,99.90
2023-01-23T22:03:44.771Z,99.90
2023-01-23T22:05:46.744Z,99.90
2023-01-23T22:07:48.570Z,99.90
2023-01-23T22:09:50.271Z,99.90
2023-01-23T22:11:52.121Z,99.90
2023-01-23T22:13:54.249Z,99.90
2023-01-23T22:15:57.929Z,99.90
2023-01-23T22:17:59.662Z,99.90
2023-01-23T22:20:01.324Z,99.90
2023-01-23T22:22:03.045Z,99.90
2023-01-23T22:24:05.123Z,99.90
2023-01-23T22:26:09.277Z,99.90
2023-01-23T22:28:11.076Z,99.90
2023-01-23T22:30:13.102Z,99.90
2023-01-23T22:32:14.994Z,99.90
2023-01-23T22:34:16.935Z,99.90
2023-01-23T22:36:20.266Z,99.90
2023-01-23T22:38:22.047Z,99.90
2023-01-23T22:40:23.700Z,99.90
2023-01-23T22:42:25.454Z,99.90
2023-01-23T22:44:27.191Z,99.90
2023-01-23T22:46:29.122Z,99.90
2023-01-23T22:48:31.191Z,99.90
2023-01-23T22:50:33.038Z,99.90
2023-01-23T22:52:34.983Z,99.90
2023-01-23T22:54:36.686Z,99.90
2023-01-23T22:56:38.833Z,99.90
2023-01-23T22:58:44.383Z,99.90
2023-01-23T23:00:46.277Z,99.90
2023-01-23T23:02:48.169Z,99.90
2023-01-23T23:04:51.501Z,99.90
2023-01-23T23:06:53.190Z,99.90
2023-01-23T23:08:55.593Z,99.90
2023-01-23T23:11:25.574Z,99.90
2023-01-23T23:13:28.317Z,99.90
2023-01-23T23:15:29.984Z,99.90
2023-01-23T23:17:31.657Z,99.90
2023-01-23T23:19:33.467Z,99.90
2023-01-23T23:21:37.309Z,99.90
2023-01-23T23:23:39.269Z,99.90
2023-01-23T23:25:40.938Z,99.90
2023-01-23T23:27:42.637Z,99.90
2023-01-23T23:29:44.488Z,99.90
2023-01-23T23:31:47.256Z,99.90
2023-01-23T23:33:48.950Z,99.90
2023-01-23T23:35:50.620Z,99.90
2023-01-23T23:37:52.405Z,99.90
2023-01-23T23:39:54.157Z,99.90
2023-01-23T23:41:56.083Z,99.90
2023-01-23T23:43:57.801Z,99.90
2023-01-23T23:46:01.764Z,99.90
2023-01-23T23:48:03.721Z,99.90
2023-01-23T23:50:06.106Z,99.90
2023-01-23T23:52:07.759Z,99.90
2023-01-23T23:54:09.395Z,99.90
2023-01-23T23:56:21.928Z,99.90
2023-01-23T23:58:26.593Z,99.90
